Aviation Digital Data Service (ADDS)

Output produced by METARs form (1351 UTC 26 February 2021)
found at http://www.aviationweather.gov/metar/data/
 
KGED 261254Z AUTO 00000KT 10SM CLR 04/M05 A3047 RMK AO2 SLP317 T00391050 $